createdAt,value
2023-03-15T00:02:13.049Z,11.25
2023-03-15T00:07:15.815Z,12.52
2023-03-15T00:12:22.883Z,8.82
2023-03-15T00:17:25.637Z,11.15
2023-03-15T00:22:28.538Z,19.55
2023-03-15T00:27:32.716Z,6.35
2023-03-15T00:32:35.615Z,10.20
2023-03-15T00:37:39.310Z,7.30
2023-03-15T00:42:49.986Z,11.73
2023-03-15T00:47:54.168Z,13.80
2023-03-15T00:52:57.002Z,12.00
2023-03-15T00:58:01.126Z,10.70
2023-03-15T01:03:04.224Z,14.43
2023-03-15T01:08:07.235Z,5.47
2023-03-15T01:13:11.458Z,15.70
2023-03-15T01:18:14.425Z,8.57
2023-03-15T01:23:17.688Z,6.00
2023-03-15T01:28:23.714Z,8.70
2023-03-15T01:33:26.722Z,10.00
2023-03-15T01:38:29.912Z,13.63
2023-03-15T01:43:34.866Z,8.43
2023-03-15T01:48:44.718Z,6.47
2023-03-15T01:53:54.985Z,9.40
2023-03-15T01:59:02.126Z,7.90
2023-03-15T02:04:10.304Z,14.88
2023-03-15T02:09:19.660Z,13.43
2023-03-15T02:14:25.602Z,5.68
2023-03-15T02:19:41.463Z,9.13
2023-03-15T02:24:52.722Z,7.40
2023-03-15T02:29:57.109Z,10.77
2023-03-15T02:35:00.179Z,5.13
2023-03-15T02:40:03.244Z,5.88
2023-03-15T02:45:09.088Z,5.20
2023-03-15T02:50:12.806Z,11.55
2023-03-15T02:55:15.658Z,4.93
2023-03-15T03:00:20.758Z,7.43
2023-03-15T03:05:23.821Z,5.55
2023-03-15T03:10:27.550Z,7.45
2023-03-15T03:15:34.804Z,7.03
2023-03-15T03:20:37.977Z,5.38
2023-03-15T03:26:27.856Z,4.53
2023-03-15T03:31:33.725Z,4.13
2023-03-15T03:36:37.932Z,9.38
2023-03-15T03:41:41.049Z,9.20
2023-03-15T03:46:48.104Z,9.60
2023-03-15T03:51:51.065Z,9.82
2023-03-15T03:56:54.198Z,11.60
2023-03-15T04:02:02.052Z,11.38
2023-03-15T04:07:05.951Z,12.32
2023-03-15T04:12:12.586Z,6.15
2023-03-15T04:17:19.244Z,7.15
2023-03-15T04:22:22.131Z,7.68
2023-03-15T04:27:43.612Z,6.18
2023-03-15T04:33:17.170Z,7.60
2023-03-15T04:38:36.660Z,11.65
2023-03-15T04:43:57.849Z,11.60
2023-03-15T04:49:16.905Z,10.80
2023-03-15T04:54:34.570Z,12.80
2023-03-15T04:59:49.681Z,11.18
2023-03-15T05:05:10.734Z,6.35
2023-03-15T05:10:25.289Z,7.18
2023-03-15T05:15:48.460Z,6.82
2023-03-15T05:21:13.198Z,4.35
2023-03-15T05:26:32.327Z,10.05
2023-03-15T05:32:13.994Z,11.60
2023-03-15T05:37:32.833Z,17.08
2023-03-15T05:42:51.813Z,16.90
2023-03-15T05:48:20.732Z,12.93
2023-03-15T05:53:34.932Z,14.88
2023-03-15T05:58:48.959Z,15.32
2023-03-15T06:04:00.589Z,12.73
2023-03-15T06:09:08.398Z,10.73
2023-03-15T06:14:12.087Z,11.80
2023-03-15T06:19:24.719Z,12.57
2023-03-15T06:24:31.483Z,14.80
2023-03-15T06:29:34.351Z,11.48
2023-03-15T06:34:38.659Z,14.05
2023-03-15T06:39:44.605Z,9.57
2023-03-15T06:44:48.308Z,13.93
2023-03-15T06:49:52.716Z,11.55
2023-03-15T06:54:56.902Z,12.35
2023-03-15T06:59:59.889Z,11.38
2023-03-15T07:05:02.708Z,19.42
2023-03-15T07:10:07.588Z,11.73
2023-03-15T07:15:11.833Z,12.30
2023-03-15T07:20:14.955Z,13.20
2023-03-15T07:25:23.799Z,14.73
2023-03-15T07:30:26.831Z,10.55
2023-03-15T07:35:29.695Z,14.15
2023-03-15T07:40:34.109Z,17.77
2023-03-15T07:45:36.867Z,13.50
2023-03-15T07:50:40.166Z,17.08
2023-03-15T07:55:44.937Z,10.25
2023-03-15T08:00:47.924Z,11.18
2023-03-15T08:05:50.742Z,13.52
2023-03-15T08:10:55.916Z,13.50
2023-03-15T08:15:58.854Z,9.68
2023-03-15T08:21:01.848Z,9.60
2023-03-15T08:26:06.398Z,13.57
2023-03-15T08:31:10.095Z,12.38
2023-03-15T08:36:12.963Z,11.65
2023-03-15T08:41:17.216Z,17.05
2023-03-15T08:46:21.892Z,14.15
2023-03-15T08:51:25.553Z,12.65
2023-03-15T08:56:29.698Z,13.65
2023-03-15T09:01:32.501Z,14.70
2023-03-15T09:06:35.284Z,12.18
2023-03-15T09:11:39.542Z,14.18
2023-03-15T09:16:42.454Z,9.63
2023-03-15T09:21:47.125Z,7.53
2023-03-15T09:26:51.297Z,11.48
2023-03-15T09:31:54.123Z,12.60
2023-03-15T09:36:56.991Z,14.50
2023-03-15T09:42:05.407Z,13.43
2023-03-15T09:47:33.010Z,11.32
2023-03-15T09:52:43.777Z,10.40
2023-03-15T09:57:52.107Z,9.45
2023-03-15T10:03:01.420Z,9.52
2023-03-15T10:08:04.492Z,9.60
2023-03-15T10:13:21.903Z,13.43
2023-03-15T10:18:43.119Z,8.35
2023-03-15T10:23:52.133Z,14.15
2023-03-15T10:28:56.424Z,8.90
2023-03-15T10:33:59.184Z,10.88
2023-03-15T10:39:01.914Z,6.82
2023-03-15T10:44:08.480Z,6.40
2023-03-15T10:49:13.182Z,7.05
2023-03-15T10:54:19.535Z,6.35
2023-03-15T10:59:26.474Z,6.15
2023-03-15T11:04:33.804Z,6.63
2023-03-15T11:09:41.619Z,6.70
2023-03-15T11:14:48.955Z,6.20
2023-03-15T11:19:57.063Z,7.28
2023-03-15T11:25:00.005Z,4.97
2023-03-15T11:30:05.382Z,7.85
2023-03-15T11:35:13.403Z,5.43
2023-03-15T11:40:22.191Z,7.93
2023-03-15T11:45:35.386Z,10.27
2023-03-15T11:50:58.561Z,2.60
2023-03-15T11:56:21.857Z,5.90
2023-03-15T12:01:27.717Z,6.95
2023-03-15T12:06:48.941Z,4.22
2023-03-15T12:11:51.744Z,6.40
2023-03-15T12:17:13.312Z,4.10
2023-03-15T12:22:18.187Z,6.28
2023-03-15T12:27:22.199Z,2.75
2023-03-15T12:32:27.977Z,3.10
2023-03-15T12:37:47.366Z,2.42
2023-03-15T12:43:08.130Z,2.45
2023-03-15T12:48:29.385Z,4.20
2023-03-15T12:53:43.935Z,3.50
2023-03-15T12:58:49.863Z,5.95
2023-03-15T13:03:57.014Z,5.95
2023-03-15T13:09:04.496Z,3.15
2023-03-15T13:14:33.868Z,4.88
2023-03-15T13:19:42.801Z,2.65
2023-03-15T13:24:57.766Z,2.58
2023-03-15T13:30:00.615Z,3.10
2023-03-15T13:35:05.026Z,4.38
2023-03-15T13:40:15.877Z,2.20
2023-03-15T13:45:18.936Z,4.90
2023-03-15T13:50:23.268Z,4.18
2023-03-15T13:55:32.895Z,3.60
2023-03-15T14:00:37.358Z,1.95
2023-03-15T14:05:48.829Z,1.58
2023-03-15T14:11:03.675Z,2.83
2023-03-15T14:16:08.701Z,2.63
2023-03-15T14:21:17.045Z,5.20
2023-03-15T14:26:22.599Z,4.40
2023-03-15T14:31:27.691Z,4.03
2023-03-15T14:36:35.361Z,3.25
2023-03-15T14:41:38.616Z,3.17
2023-03-15T14:46:42.684Z,4.18
2023-03-15T14:51:47.387Z,6.22
2023-03-15T14:56:50.954Z,7.53
2023-03-15T15:01:56.080Z,4.97
2023-03-15T15:07:03.151Z,5.78
2023-03-15T15:12:06.541Z,4.63
2023-03-15T15:17:09.936Z,2.22
2023-03-15T15:22:14.141Z,5.10
2023-03-15T15:27:16.913Z,3.85
2023-03-15T15:32:19.708Z,4.32
2023-03-15T15:37:23.890Z,6.05
2023-03-15T15:42:26.711Z,5.13
2023-03-15T15:47:29.630Z,4.32
2023-03-15T15:52:33.896Z,4.50
2023-03-15T15:57:36.731Z,3.97
2023-03-15T16:02:39.637Z,7.45
2023-03-15T16:07:43.859Z,4.45
2023-03-15T16:12:47.048Z,7.50
2023-03-15T16:17:50.254Z,2.03
2023-03-15T16:22:58.709Z,3.58
2023-03-15T16:28:03.528Z,4.80
2023-03-15T16:33:16.066Z,3.90
2023-03-15T16:38:26.364Z,5.07
2023-03-15T16:43:29.319Z,6.22
2023-03-15T16:48:32.101Z,14.90
2023-03-15T16:53:37.356Z,4.07
2023-03-15T16:58:40.640Z,3.88
2023-03-15T17:03:43.772Z,4.45
2023-03-15T17:08:48.486Z,2.83
2023-03-15T17:13:51.290Z,2.70
2023-03-15T17:18:54.050Z,5.22
2023-03-15T17:23:58.304Z,37.97
2023-03-15T17:29:01.300Z,21.70
2023-03-15T17:34:04.077Z,8.95
2023-03-15T17:39:12.389Z,9.63
2023-03-15T17:44:15.206Z,7.80
2023-03-15T17:49:18.004Z,7.50
2023-03-15T17:54:22.624Z,8.55
2023-03-15T17:59:25.417Z,17.40
2023-03-15T18:04:28.474Z,9.50
2023-03-15T18:09:32.882Z,9.25
2023-03-15T18:14:37.246Z,11.73
2023-03-15T18:19:40.188Z,14.27
2023-03-15T18:24:46.929Z,10.68
2023-03-15T18:29:49.840Z,10.35
2023-03-15T18:34:52.586Z,7.82
2023-03-15T18:39:57.162Z,5.00
2023-03-15T18:44:59.938Z,10.10
2023-03-15T18:50:10.675Z,8.25
2023-03-15T18:55:17.451Z,5.47
2023-03-15T19:00:25.872Z,8.85
2023-03-15T19:05:30.357Z,13.13
2023-03-15T19:10:34.564Z,9.30
2023-03-15T19:15:37.322Z,5.82
2023-03-15T19:20:40.114Z,12.75
2023-03-15T19:25:44.301Z,7.25
2023-03-15T19:30:47.177Z,11.90
2023-03-15T19:35:50.141Z,10.23
2023-03-15T19:40:58.463Z,10.98
2023-03-15T19:46:04.283Z,9.85
2023-03-15T19:51:07.575Z,5.88
2023-03-15T19:56:12.138Z,13.85
2023-03-15T20:01:15.841Z,11.45
2023-03-15T20:06:18.698Z,8.48
2023-03-15T20:11:25.160Z,9.32
2023-03-15T20:16:28.227Z,6.65
2023-03-15T20:21:31.062Z,8.13
2023-03-15T20:26:35.265Z,8.68
2023-03-15T20:31:38.360Z,9.25
2023-03-15T20:36:41.782Z,7.40
2023-03-15T20:41:45.976Z,7.75
2023-03-15T20:46:48.817Z,7.53
2023-03-15T20:51:51.696Z,10.43
2023-03-15T20:56:56.361Z,16.45
2023-03-15T21:01:59.195Z,15.60
2023-03-15T21:07:04.279Z,11.48
2023-03-15T21:12:09.030Z,10.98
2023-03-15T21:17:14.272Z,10.98
2023-03-15T21:22:18.266Z,21.73
2023-03-15T21:27:22.456Z,20.83
2023-03-15T21:32:26.231Z,14.77
2023-03-15T21:37:29.194Z,11.00
2023-03-15T21:42:33.505Z,10.80
2023-03-15T21:47:36.838Z,14.48
2023-03-15T21:52:39.760Z,12.05
2023-03-15T21:57:45.342Z,13.70
2023-03-15T22:02:48.762Z,14.82
2023-03-15T22:07:51.759Z,13.35
2023-03-15T22:12:55.991Z,13.48
2023-03-15T22:17:58.814Z,14.77
2023-03-15T22:23:04.257Z,14.27
2023-03-15T22:28:08.572Z,11.68
2023-03-15T22:33:11.835Z,13.00
2023-03-15T22:38:15.684Z,21.27
2023-03-15T22:43:19.865Z,15.63
2023-03-15T22:48:22.894Z,13.20
2023-03-15T22:53:25.697Z,16.48
2023-03-15T22:58:29.851Z,11.98
2023-03-15T23:03:32.713Z,15.32
2023-03-15T23:08:35.518Z,21.58
2023-03-15T23:13:39.675Z,13.65
2023-03-15T23:18:42.947Z,13.88
2023-03-15T23:23:45.720Z,17.23
2023-03-15T23:28:49.930Z,13.95
2023-03-15T23:33:52.825Z,14.50
2023-03-15T23:38:55.561Z,15.55
2023-03-15T23:43:59.618Z,16.33
2023-03-15T23:49:02.481Z,10.15
2023-03-15T23:54:05.288Z,15.52
2023-03-15T23:59:09.390Z,10.02
